sensor_id;sensor_type;location;lat;lon;timestamp;P1;durP1;ratioP1;P2;durP2;ratioP2
6376;SDS011;3221;48.858;10.128;2023-06-10T00:00:43;5.87;;;4.50;;
6376;SDS011;3221;48.858;10.128;2023-06-10T00:03:10;4.90;;;4.40;;
6376;SDS011;3221;48.858;10.128;2023-06-10T00:05:38;4.87;;;4.40;;
6376;SDS011;3221;48.858;10.128;2023-06-10T00:08:06;5.23;;;4.50;;
6376;SDS011;3221;48.858;10.128;2023-06-10T00:10:37;4.83;;;4.33;;
6376;SDS011;3221;48.858;10.128;2023-06-10T00:13:05;4.83;;;4.33;;
6376;SDS011;3221;48.858;10.128;2023-06-10T00:15:34;4.77;;;4.20;;
6376;SDS011;3221;48.858;10.128;2023-06-10T00:18:02;4.93;;;4.43;;
6376;SDS011;3221;48.858;10.128;2023-06-10T00:20:30;4.67;;;4.27;;
6376;SDS011;3221;48.858;10.128;2023-06-10T00:22:57;4.30;;;4.00;;
6376;SDS011;3221;48.858;10.128;2023-06-10T00:25:25;4.80;;;4.40;;
6376;SDS011;3221;48.858;10.128;2023-06-10T00:27:52;4.83;;;4.43;;
6376;SDS011;3221;48.858;10.128;2023-06-10T00:30:24;4.80;;;4.40;;
6376;SDS011;3221;48.858;10.128;2023-06-10T00:32:51;4.70;;;4.30;;
6376;SDS011;3221;48.858;10.128;2023-06-10T00:35:18;4.80;;;4.40;;
6376;SDS011;3221;48.858;10.128;2023-06-10T00:37:45;4.73;;;4.30;;
6376;SDS011;3221;48.858;10.128;2023-06-10T00:40:12;4.90;;;4.33;;
6376;SDS011;3221;48.858;10.128;2023-06-10T00:42:39;4.97;;;4.47;;
6376;SDS011;3221;48.858;10.128;2023-06-10T00:45:06;5.03;;;4.53;;
6376;SDS011;3221;48.858;10.128;2023-06-10T00:47:35;5.37;;;4.87;;
6376;SDS011;3221;48.858;10.128;2023-06-10T00:50:02;4.83;;;4.30;;
6376;SDS011;3221;48.858;10.128;2023-06-10T00:52:30;4.60;;;4.20;;
6376;SDS011;3221;48.858;10.128;2023-06-10T00:54:57;4.63;;;4.23;;
6376;SDS011;3221;48.858;10.128;2023-06-10T00:57:25;4.57;;;3.97;;
6376;SDS011;3221;48.858;10.128;2023-06-10T00:59:53;4.97;;;4.20;;
6376;SDS011;3221;48.858;10.128;2023-06-10T01:02:20;4.33;;;3.93;;
6376;SDS011;3221;48.858;10.128;2023-06-10T01:04:47;5.23;;;4.73;;
6376;SDS011;3221;48.858;10.128;2023-06-10T01:12:52;5.20;;;4.70;;
6376;SDS011;3221;48.858;10.128;2023-06-10T01:15:25;5.03;;;4.53;;
6376;SDS011;3221;48.858;10.128;2023-06-10T01:18:03;4.87;;;4.47;;
6376;SDS011;3221;48.858;10.128;2023-06-10T01:20:31;4.93;;;4.43;;
6376;SDS011;3221;48.858;10.128;2023-06-10T01:22:59;6.27;;;4.67;;
6376;SDS011;3221;48.858;10.128;2023-06-10T01:25:29;4.70;;;4.30;;
6376;SDS011;3221;48.858;10.128;2023-06-10T01:28:19;5.00;;;4.50;;
6376;SDS011;3221;48.858;10.128;2023-06-10T01:31:17;5.27;;;4.77;;
6376;SDS011;3221;48.858;10.128;2023-06-10T01:34:00;6.90;;;4.87;;
6376;SDS011;3221;48.858;10.128;2023-06-10T01:36:30;5.27;;;4.87;;
6376;SDS011;3221;48.858;10.128;2023-06-10T01:38:59;5.33;;;4.83;;
6376;SDS011;3221;48.858;10.128;2023-06-10T01:41:27;5.33;;;4.83;;
6376;SDS011;3221;48.858;10.128;2023-06-10T01:43:55;5.17;;;4.77;;
6376;SDS011;3221;48.858;10.128;2023-06-10T01:46:22;5.80;;;5.30;;
6376;SDS011;3221;48.858;10.128;2023-06-10T01:48:49;5.93;;;4.97;;
6376;SDS011;3221;48.858;10.128;2023-06-10T01:51:16;5.70;;;5.20;;
6376;SDS011;3221;48.858;10.128;2023-06-10T01:53:43;7.47;;;5.10;;
6376;SDS011;3221;48.858;10.128;2023-06-10T01:56:10;5.73;;;5.20;;
6376;SDS011;3221;48.858;10.128;2023-06-10T01:58:43;5.67;;;5.07;;
6376;SDS011;3221;48.858;10.128;2023-06-10T02:01:10;5.53;;;4.93;;
6376;SDS011;3221;48.858;10.128;2023-06-10T02:03:37;5.63;;;5.13;;
6376;SDS011;3221;48.858;10.128;2023-06-10T02:06:05;5.43;;;4.93;;
6376;SDS011;3221;48.858;10.128;2023-06-10T02:08:31;5.07;;;4.67;;
6376;SDS011;3221;48.858;10.128;2023-06-10T02:10:59;5.60;;;5.10;;
6376;SDS011;3221;48.858;10.128;2023-06-10T02:13:28;6.37;;;5.43;;
6376;SDS011;3221;48.858;10.128;2023-06-10T02:15:55;5.77;;;5.10;;
6376;SDS011;3221;48.858;10.128;2023-06-10T02:18:27;5.80;;;5.30;;
6376;SDS011;3221;48.858;10.128;2023-06-10T02:20:54;5.87;;;5.37;;
6376;SDS011;3221;48.858;10.128;2023-06-10T02:23:21;5.43;;;4.93;;
6376;SDS011;3221;48.858;10.128;2023-06-10T02:25:48;6.97;;;5.50;;
6376;SDS011;3221;48.858;10.128;2023-06-10T02:28:15;5.70;;;5.20;;
6376;SDS011;3221;48.858;10.128;2023-06-10T02:30:42;5.83;;;5.27;;
6376;SDS011;3221;48.858;10.128;2023-06-10T02:33:09;6.33;;;5.57;;
6376;SDS011;3221;48.858;10.128;2023-06-10T02:35:38;6.00;;;5.50;;
6376;SDS011;3221;48.858;10.128;2023-06-10T02:38:05;6.07;;;5.57;;
6376;SDS011;3221;48.858;10.128;2023-06-10T02:40:34;5.63;;;5.13;;
6376;SDS011;3221;48.858;10.128;2023-06-10T02:43:00;6.73;;;5.47;;
6376;SDS011;3221;48.858;10.128;2023-06-10T02:45:27;6.27;;;5.67;;
6376;SDS011;3221;48.858;10.128;2023-06-10T02:47:56;5.60;;;5.10;;
6376;SDS011;3221;48.858;10.128;2023-06-10T02:50:23;5.67;;;5.17;;
6376;SDS011;3221;48.858;10.128;2023-06-10T02:53:08;6.43;;;5.83;;
6376;SDS011;3221;48.858;10.128;2023-06-10T02:55:39;6.30;;;5.70;;
6376;SDS011;3221;48.858;10.128;2023-06-10T02:58:10;6.73;;;6.03;;
6376;SDS011;3221;48.858;10.128;2023-06-10T03:00:38;6.27;;;5.67;;
6376;SDS011;3221;48.858;10.128;2023-06-10T03:03:08;6.60;;;6.00;;
6376;SDS011;3221;48.858;10.128;2023-06-10T03:05:45;6.63;;;5.93;;
6376;SDS011;3221;48.858;10.128;2023-06-10T03:08:14;6.47;;;5.77;;
6376;SDS011;3221;48.858;10.128;2023-06-10T03:10:42;5.77;;;5.17;;
6376;SDS011;3221;48.858;10.128;2023-06-10T03:13:13;6.63;;;5.60;;
6376;SDS011;3221;48.858;10.128;2023-06-10T03:15:40;6.13;;;5.57;;
6376;SDS011;3221;48.858;10.128;2023-06-10T03:18:11;6.53;;;5.93;;
6376;SDS011;3221;48.858;10.128;2023-06-10T03:20:39;7.07;;;6.37;;
6376;SDS011;3221;48.858;10.128;2023-06-10T03:23:08;7.53;;;6.60;;
6376;SDS011;3221;48.858;10.128;2023-06-10T03:25:36;6.80;;;6.13;;
6376;SDS011;3221;48.858;10.128;2023-06-10T03:28:03;6.90;;;6.20;;
6376;SDS011;3221;48.858;10.128;2023-06-10T03:30:30;6.60;;;6.00;;
6376;SDS011;3221;48.858;10.128;2023-06-10T03:32:58;8.13;;;6.80;;
6376;SDS011;3221;48.858;10.128;2023-06-10T03:35:27;6.77;;;6.17;;
6376;SDS011;3221;48.858;10.128;2023-06-10T03:37:54;7.20;;;6.50;;
6376;SDS011;3221;48.858;10.128;2023-06-10T03:40:21;6.43;;;5.70;;
6376;SDS011;3221;48.858;10.128;2023-06-10T03:42:48;7.03;;;6.00;;
6376;SDS011;3221;48.858;10.128;2023-06-10T03:45:16;7.50;;;5.97;;
6376;SDS011;3221;48.858;10.128;2023-06-10T03:47:45;6.50;;;5.90;;
6376;SDS011;3221;48.858;10.128;2023-06-10T03:50:17;6.67;;;6.07;;
6376;SDS011;3221;48.858;10.128;2023-06-10T03:52:44;6.80;;;6.10;;
6376;SDS011;3221;48.858;10.128;2023-06-10T03:55:14;6.83;;;6.23;;
6376;SDS011;3221;48.858;10.128;2023-06-10T03:57:44;6.80;;;5.47;;
6376;SDS011;3221;48.858;10.128;2023-06-10T04:00:11;6.47;;;5.87;;
6376;SDS011;3221;48.858;10.128;2023-06-10T04:02:42;6.40;;;5.80;;
6376;SDS011;3221;48.858;10.128;2023-06-10T04:05:22;5.57;;;5.07;;
6376;SDS011;3221;48.858;10.128;2023-06-10T04:07:51;6.43;;;5.83;;
6376;SDS011;3221;48.858;10.128;2023-06-10T04:10:18;6.20;;;5.60;;
6376;SDS011;3221;48.858;10.128;2023-06-10T04:12:45;6.70;;;6.00;;
6376;SDS011;3221;48.858;10.128;2023-06-10T04:15:12;5.77;;;5.27;;
6376;SDS011;3221;48.858;10.128;2023-06-10T04:17:40;6.10;;;5.50;;
6376;SDS011;3221;48.858;10.128;2023-06-10T04:20:08;5.93;;;5.43;;
6376;SDS011;3221;48.858;10.128;2023-06-10T04:22:39;5.43;;;4.93;;
6376;SDS011;3221;48.858;10.128;2023-06-10T04:25:08;6.60;;;5.50;;
6376;SDS011;3221;48.858;10.128;2023-06-10T04:27:37;5.73;;;5.23;;
6376;SDS011;3221;48.858;10.128;2023-06-10T04:30:04;5.97;;;5.47;;
6376;SDS011;3221;48.858;10.128;2023-06-10T04:32:34;5.43;;;4.93;;
6376;SDS011;3221;48.858;10.128;2023-06-10T04:35:01;5.60;;;5.00;;
6376;SDS011;3221;48.858;10.128;2023-06-10T04:37:28;5.97;;;5.40;;
6376;SDS011;3221;48.858;10.128;2023-06-10T04:39:56;5.87;;;5.37;;
6376;SDS011;3221;48.858;10.128;2023-06-10T04:42:23;6.00;;;5.40;;
6376;SDS011;3221;48.858;10.128;2023-06-10T04:44:50;6.17;;;5.57;;
6376;SDS011;3221;48.858;10.128;2023-06-10T04:47:18;6.80;;;5.67;;
6376;SDS011;3221;48.858;10.128;2023-06-10T04:49:44;6.03;;;5.43;;
6376;SDS011;3221;48.858;10.128;2023-06-10T04:52:11;6.87;;;5.90;;
6376;SDS011;3221;48.858;10.128;2023-06-10T04:54:44;6.27;;;5.63;;
6376;SDS011;3221;48.858;10.128;2023-06-10T04:57:11;6.10;;;5.60;;
6376;SDS011;3221;48.858;10.128;2023-06-10T04:59:38;6.67;;;5.53;;
6376;SDS011;3221;48.858;10.128;2023-06-10T05:02:05;7.67;;;6.37;;
6376;SDS011;3221;48.858;10.128;2023-06-10T05:04:32;6.83;;;6.00;;
6376;SDS011;3221;48.858;10.128;2023-06-10T05:06:59;6.73;;;6.00;;
6376;SDS011;3221;48.858;10.128;2023-06-10T05:09:25;6.73;;;6.13;;
6376;SDS011;3221;48.858;10.128;2023-06-10T05:11:52;6.90;;;6.20;;
6376;SDS011;3221;48.858;10.128;2023-06-10T05:14:20;7.33;;;6.27;;
6376;SDS011;3221;48.858;10.128;2023-06-10T05:16:47;6.37;;;5.77;;
6376;SDS011;3221;48.858;10.128;2023-06-10T05:19:15;6.03;;;5.47;;
6376;SDS011;3221;48.858;10.128;2023-06-10T05:21:45;10.93;;;6.27;;
6376;SDS011;3221;48.858;10.128;2023-06-10T05:24:12;6.90;;;5.63;;
6376;SDS011;3221;48.858;10.128;2023-06-10T05:26:39;5.90;;;5.40;;
6376;SDS011;3221;48.858;10.128;2023-06-10T05:29:07;6.43;;;5.83;;
6376;SDS011;3221;48.858;10.128;2023-06-10T05:31:35;5.90;;;5.30;;
6376;SDS011;3221;48.858;10.128;2023-06-10T05:34:02;6.67;;;6.07;;
6376;SDS011;3221;48.858;10.128;2023-06-10T05:36:29;5.80;;;5.20;;
6376;SDS011;3221;48.858;10.128;2023-06-10T05:38:56;6.30;;;5.70;;
6376;SDS011;3221;48.858;10.128;2023-06-10T05:41:23;6.57;;;5.93;;
6376;SDS011;3221;48.858;10.128;2023-06-10T05:43:49;6.50;;;5.83;;
6376;SDS011;3221;48.858;10.128;2023-06-10T05:46:16;6.27;;;5.67;;
6376;SDS011;3221;48.858;10.128;2023-06-10T05:48:43;6.83;;;6.13;;
6376;SDS011;3221;48.858;10.128;2023-06-10T05:51:10;6.90;;;6.20;;
6376;SDS011;3221;48.858;10.128;2023-06-10T05:53:37;6.73;;;6.13;;
6376;SDS011;3221;48.858;10.128;2023-06-10T05:56:04;6.93;;;6.30;;
6376;SDS011;3221;48.858;10.128;2023-06-10T05:58:31;7.03;;;6.37;;
6376;SDS011;3221;48.858;10.128;2023-06-10T06:00:58;7.67;;;6.57;;
6376;SDS011;3221;48.858;10.128;2023-06-10T06:03:26;7.07;;;6.37;;
6376;SDS011;3221;48.858;10.128;2023-06-10T06:05:55;7.60;;;6.43;;
6376;SDS011;3221;48.858;10.128;2023-06-10T06:08:22;7.00;;;6.40;;
6376;SDS011;3221;48.858;10.128;2023-06-10T06:10:49;7.40;;;6.70;;
6376;SDS011;3221;48.858;10.128;2023-06-10T06:13:16;8.20;;;7.17;;
6376;SDS011;3221;48.858;10.128;2023-06-10T06:15:44;7.50;;;6.80;;
6376;SDS011;3221;48.858;10.128;2023-06-10T06:18:11;7.87;;;7.07;;
6376;SDS011;3221;48.858;10.128;2023-06-10T06:20:38;8.13;;;7.00;;
6376;SDS011;3221;48.858;10.128;2023-06-10T06:23:05;8.23;;;7.30;;
6376;SDS011;3221;48.858;10.128;2023-06-10T06:25:32;7.87;;;7.10;;
6376;SDS011;3221;48.858;10.128;2023-06-10T06:27:59;9.20;;;7.83;;
6376;SDS011;3221;48.858;10.128;2023-06-10T06:30:26;9.80;;;7.43;;
6376;SDS011;3221;48.858;10.128;2023-06-10T06:32:53;8.47;;;7.57;;
6376;SDS011;3221;48.858;10.128;2023-06-10T06:35:20;8.20;;;7.40;;
6376;SDS011;3221;48.858;10.128;2023-06-10T06:37:47;7.73;;;7.03;;
6376;SDS011;3221;48.858;10.128;2023-06-10T06:40:22;10.20;;;7.07;;
6376;SDS011;3221;48.858;10.128;2023-06-10T06:42:49;8.90;;;7.60;;
6376;SDS011;3221;48.858;10.128;2023-06-10T06:45:22;8.97;;;8.00;;
6376;SDS011;3221;48.858;10.128;2023-06-10T06:47:49;8.10;;;7.40;;
6376;SDS011;3221;48.858;10.128;2023-06-10T06:50:16;8.60;;;7.50;;
6376;SDS011;3221;48.858;10.128;2023-06-10T06:52:43;7.97;;;7.17;;
6376;SDS011;3221;48.858;10.128;2023-06-10T06:55:10;9.37;;;6.90;;
6376;SDS011;3221;48.858;10.128;2023-06-10T06:57:38;8.53;;;7.57;;
6376;SDS011;3221;48.858;10.128;2023-06-10T07:00:05;7.57;;;6.87;;
6376;SDS011;3221;48.858;10.128;2023-06-10T07:02:32;7.70;;;7.00;;
6376;SDS011;3221;48.858;10.128;2023-06-10T07:04:59;6.93;;;6.30;;
6376;SDS011;3221;48.858;10.128;2023-06-10T07:07:27;6.80;;;6.10;;
6376;SDS011;3221;48.858;10.128;2023-06-10T07:09:54;6.90;;;6.20;;
6376;SDS011;3221;48.858;10.128;2023-06-10T07:12:20;6.77;;;6.17;;
6376;SDS011;3221;48.858;10.128;2023-06-10T07:14:50;6.77;;;6.17;;
6376;SDS011;3221;48.858;10.128;2023-06-10T07:17:17;6.60;;;6.00;;
6376;SDS011;3221;48.858;10.128;2023-06-10T07:19:45;6.63;;;6.03;;
6376;SDS011;3221;48.858;10.128;2023-06-10T07:22:12;6.40;;;5.80;;
6376;SDS011;3221;48.858;10.128;2023-06-10T07:24:39;7.53;;;6.07;;
6376;SDS011;3221;48.858;10.128;2023-06-10T07:27:06;6.33;;;5.73;;
6376;SDS011;3221;48.858;10.128;2023-06-10T07:29:33;6.13;;;5.53;;
6376;SDS011;3221;48.858;10.128;2023-06-10T07:32:05;6.30;;;5.73;;
6376;SDS011;3221;48.858;10.128;2023-06-10T07:34:32;7.77;;;7.07;;
6376;SDS011;3221;48.858;10.128;2023-06-10T07:36:59;7.37;;;6.77;;
6376;SDS011;3221;48.858;10.128;2023-06-10T07:39:26;6.40;;;5.83;;
6376;SDS011;3221;48.858;10.128;2023-06-10T07:41:53;7.37;;;6.43;;
6376;SDS011;3221;48.858;10.128;2023-06-10T07:44:22;6.67;;;5.80;;
6376;SDS011;3221;48.858;10.128;2023-06-10T07:46:49;8.03;;;6.00;;
6376;SDS011;3221;48.858;10.128;2023-06-10T07:49:16;6.63;;;5.93;;
6376;SDS011;3221;48.858;10.128;2023-06-10T07:51:43;6.57;;;5.97;;
6376;SDS011;3221;48.858;10.128;2023-06-10T07:54:11;6.50;;;5.90;;
6376;SDS011;3221;48.858;10.128;2023-06-10T07:56:38;6.50;;;5.90;;
6376;SDS011;3221;48.858;10.128;2023-06-10T07:59:05;6.23;;;5.63;;
6376;SDS011;3221;48.858;10.128;2023-06-10T08:01:32;6.23;;;5.70;;
6376;SDS011;3221;48.858;10.128;2023-06-10T08:03:59;6.20;;;5.40;;
6376;SDS011;3221;48.858;10.128;2023-06-10T08:06:26;6.47;;;5.87;;
6376;SDS011;3221;48.858;10.128;2023-06-10T08:08:53;6.40;;;5.90;;
6376;SDS011;3221;48.858;10.128;2023-06-10T08:11:20;6.57;;;5.97;;
6376;SDS011;3221;48.858;10.128;2023-06-10T08:13:47;6.40;;;5.80;;
6376;SDS011;3221;48.858;10.128;2023-06-10T08:16:14;6.67;;;6.07;;
6376;SDS011;3221;48.858;10.128;2023-06-10T08:18:41;7.03;;;6.37;;
6376;SDS011;3221;48.858;10.128;2023-06-10T08:21:08;7.90;;;5.80;;
6376;SDS011;3221;48.858;10.128;2023-06-10T08:23:35;8.00;;;6.60;;
6376;SDS011;3221;48.858;10.128;2023-06-10T08:26:02;8.57;;;7.77;;
6376;SDS011;3221;48.858;10.128;2023-06-10T08:28:29;7.47;;;6.67;;
6376;SDS011;3221;48.858;10.128;2023-06-10T08:30:56;7.93;;;6.43;;
6376;SDS011;3221;48.858;10.128;2023-06-10T08:33:23;7.27;;;6.57;;
6376;SDS011;3221;48.858;10.128;2023-06-10T08:35:50;8.10;;;7.20;;
6376;SDS011;3221;48.858;10.128;2023-06-10T08:38:16;8.13;;;7.23;;
6376;SDS011;3221;48.858;10.128;2023-06-10T08:40:43;8.03;;;6.93;;
6376;SDS011;3221;48.858;10.128;2023-06-10T08:43:16;7.50;;;6.90;;
6376;SDS011;3221;48.858;10.128;2023-06-10T08:45:48;8.77;;;7.17;;
6376;SDS011;3221;48.858;10.128;2023-06-10T08:48:16;8.97;;;8.17;;
6376;SDS011;3221;48.858;10.128;2023-06-10T08:50:45;7.50;;;6.80;;
6376;SDS011;3221;48.858;10.128;2023-06-10T08:53:14;7.93;;;7.23;;
6376;SDS011;3221;48.858;10.128;2023-06-10T08:55:45;10.27;;;7.50;;
6376;SDS011;3221;48.858;10.128;2023-06-10T08:58:17;8.07;;;7.27;;
6376;SDS011;3221;48.858;10.128;2023-06-10T09:00:45;11.00;;;7.17;;
6376;SDS011;3221;48.858;10.128;2023-06-10T09:03:12;7.37;;;6.67;;
6376;SDS011;3221;48.858;10.128;2023-06-10T09:05:40;10.77;;;6.73;;
6376;SDS011;3221;48.858;10.128;2023-06-10T09:08:08;9.87;;;7.80;;
6376;SDS011;3221;48.858;10.128;2023-06-10T09:10:35;10.07;;;7.47;;
6376;SDS011;3221;48.858;10.128;2023-06-10T09:13:02;7.47;;;6.73;;
6376;SDS011;3221;48.858;10.128;2023-06-10T09:15:29;7.93;;;7.20;;
6376;SDS011;3221;48.858;10.128;2023-06-10T09:17:56;8.20;;;7.40;;
6376;SDS011;3221;48.858;10.128;2023-06-10T09:20:23;7.83;;;7.07;;
6376;SDS011;3221;48.858;10.128;2023-06-10T09:22:50;7.90;;;7.20;;
6376;SDS011;3221;48.858;10.128;2023-06-10T09:25:17;8.20;;;7.50;;
6376;SDS011;3221;48.858;10.128;2023-06-10T09:30:23;8.73;;;6.93;;
6376;SDS011;3221;48.858;10.128;2023-06-10T09:32:52;8.10;;;6.70;;
6376;SDS011;3221;48.858;10.128;2023-06-10T09:35:22;7.43;;;6.73;;
6376;SDS011;3221;48.858;10.128;2023-06-10T09:37:57;10.83;;;7.10;;
6376;SDS011;3221;48.858;10.128;2023-06-10T09:40:26;7.47;;;6.77;;
6376;SDS011;3221;48.858;10.128;2023-06-10T09:42:55;7.37;;;6.60;;
6376;SDS011;3221;48.858;10.128;2023-06-10T09:45:29;6.87;;;6.20;;
6376;SDS011;3221;48.858;10.128;2023-06-10T09:48:00;6.90;;;6.30;;
6376;SDS011;3221;48.858;10.128;2023-06-10T09:50:27;6.73;;;6.10;;
6376;SDS011;3221;48.858;10.128;2023-06-10T09:52:54;11.70;;;6.80;;
6376;SDS011;3221;48.858;10.128;2023-06-10T09:55:21;6.80;;;5.93;;
6376;SDS011;3221;48.858;10.128;2023-06-10T09:57:49;6.77;;;6.17;;
6376;SDS011;3221;48.858;10.128;2023-06-10T10:00:21;6.70;;;6.00;;
6376;SDS011;3221;48.858;10.128;2023-06-10T10:02:50;8.13;;;5.90;;
6376;SDS011;3221;48.858;10.128;2023-06-10T10:05:20;7.30;;;6.60;;
6376;SDS011;3221;48.858;10.128;2023-06-10T10:07:48;6.27;;;5.67;;
6376;SDS011;3221;48.858;10.128;2023-06-10T10:10:17;7.03;;;6.43;;
6376;SDS011;3221;48.858;10.128;2023-06-10T10:12:47;6.70;;;6.10;;
6376;SDS011;3221;48.858;10.128;2023-06-10T10:15:15;6.67;;;6.07;;
6376;SDS011;3221;48.858;10.128;2023-06-10T10:17:55;6.50;;;5.90;;
6376;SDS011;3221;48.858;10.128;2023-06-10T10:20:29;6.70;;;6.00;;
6376;SDS011;3221;48.858;10.128;2023-06-10T10:22:58;6.80;;;6.17;;
6376;SDS011;3221;48.858;10.128;2023-06-10T10:25:34;6.87;;;6.27;;
6376;SDS011;3221;48.858;10.128;2023-06-10T10:28:12;6.40;;;5.90;;
6376;SDS011;3221;48.858;10.128;2023-06-10T10:31:02;6.73;;;6.03;;
6376;SDS011;3221;48.858;10.128;2023-06-10T10:33:40;6.93;;;6.33;;
6376;SDS011;3221;48.858;10.128;2023-06-10T10:36:16;7.30;;;6.30;;
6376;SDS011;3221;48.858;10.128;2023-06-10T10:38:45;7.30;;;6.57;;
6376;SDS011;3221;48.858;10.128;2023-06-10T10:41:18;6.83;;;6.23;;
6376;SDS011;3221;48.858;10.128;2023-06-10T10:43:46;7.80;;;6.10;;
6376;SDS011;3221;48.858;10.128;2023-06-10T10:46:14;6.77;;;6.17;;
6376;SDS011;3221;48.858;10.128;2023-06-10T10:48:42;7.17;;;6.57;;
6376;SDS011;3221;48.858;10.128;2023-06-10T10:51:10;7.03;;;6.37;;
6376;SDS011;3221;48.858;10.128;2023-06-10T10:53:38;7.10;;;6.50;;
6376;SDS011;3221;48.858;10.128;2023-06-10T10:56:06;8.73;;;6.50;;
6376;SDS011;3221;48.858;10.128;2023-06-10T10:58:40;7.53;;;6.40;;
6376;SDS011;3221;48.858;10.128;2023-06-10T11:01:13;6.30;;;5.70;;
6376;SDS011;3221;48.858;10.128;2023-06-10T11:03:44;6.60;;;6.03;;
6376;SDS011;3221;48.858;10.128;2023-06-10T11:06:14;6.20;;;5.60;;
6376;SDS011;3221;48.858;10.128;2023-06-10T11:11:25;6.00;;;5.40;;
6376;SDS011;3221;48.858;10.128;2023-06-10T11:14:12;6.70;;;6.03;;
6376;SDS011;3221;48.858;10.128;2023-06-10T11:16:42;5.70;;;5.20;;
6376;SDS011;3221;48.858;10.128;2023-06-10T11:19:10;6.07;;;5.47;;
6376;SDS011;3221;48.858;10.128;2023-06-10T11:22:04;5.85;;;5.35;;
6376;SDS011;3221;48.858;10.128;2023-06-10T11:24:32;5.93;;;5.33;;
6376;SDS011;3221;48.858;10.128;2023-06-10T11:27:19;5.65;;;5.15;;
6376;SDS011;3221;48.858;10.128;2023-06-10T11:29:57;5.90;;;5.22;;
6376;SDS011;3221;48.858;10.128;2023-06-10T11:32:29;5.25;;;4.75;;
6376;SDS011;3221;48.858;10.128;2023-06-10T11:34:58;7.03;;;4.93;;
6376;SDS011;3221;48.858;10.128;2023-06-10T11:37:26;5.90;;;5.00;;
6376;SDS011;3221;48.858;10.128;2023-06-10T11:39:54;11.52;;;5.25;;
6376;SDS011;3221;48.858;10.128;2023-06-10T11:42:22;5.97;;;4.82;;
6376;SDS011;3221;48.858;10.128;2023-06-10T11:44:50;5.50;;;5.00;;
6376;SDS011;3221;48.858;10.128;2023-06-10T11:47:18;6.28;;;5.10;;
6376;SDS011;3221;48.858;10.128;2023-06-10T11:49:46;5.88;;;5.38;;
6376;SDS011;3221;48.858;10.128;2023-06-10T11:52:28;5.55;;;5.13;;
6376;SDS011;3221;48.858;10.128;2023-06-10T11:54:58;6.10;;;5.53;;
6376;SDS011;3221;48.858;10.128;2023-06-10T11:57:25;6.13;;;5.13;;
6376;SDS011;3221;48.858;10.128;2023-06-10T11:59:52;6.00;;;5.40;;
6376;SDS011;3221;48.858;10.128;2023-06-10T12:02:19;5.65;;;5.15;;
6376;SDS011;3221;48.858;10.128;2023-06-10T12:04:46;5.63;;;5.13;;
6376;SDS011;3221;48.858;10.128;2023-06-10T12:07:19;5.88;;;5.22;;
6376;SDS011;3221;48.858;10.128;2023-06-10T12:09:46;5.93;;;5.32;;
6376;SDS011;3221;48.858;10.128;2023-06-10T12:12:24;6.05;;;5.55;;
6376;SDS011;3221;48.858;10.128;2023-06-10T12:14:52;5.80;;;5.40;;
6376;SDS011;3221;48.858;10.128;2023-06-10T12:20:01;7.55;;;5.45;;
6376;SDS011;3221;48.858;10.128;2023-06-10T12:22:49;5.30;;;4.80;;
6376;SDS011;3221;48.858;10.128;2023-06-10T12:25:16;5.93;;;5.43;;
6376;SDS011;3221;48.858;10.128;2023-06-10T12:27:52;6.43;;;5.22;;
6376;SDS011;3221;48.858;10.128;2023-06-10T12:30:21;6.45;;;5.85;;
6376;SDS011;3221;48.858;10.128;2023-06-10T12:32:50;5.70;;;5.20;;
6376;SDS011;3221;48.858;10.128;2023-06-10T12:35:22;5.22;;;4.80;;
6376;SDS011;3221;48.858;10.128;2023-06-10T12:38:01;5.18;;;4.68;;
6376;SDS011;3221;48.858;10.128;2023-06-10T12:40:31;5.00;;;4.47;;
6376;SDS011;3221;48.858;10.128;2023-06-10T12:42:59;5.20;;;4.80;;
6376;SDS011;3221;48.858;10.128;2023-06-10T12:45:28;5.22;;;4.72;;
6376;SDS011;3221;48.858;10.128;2023-06-10T12:48:09;5.03;;;4.63;;
6376;SDS011;3221;48.858;10.128;2023-06-10T12:50:41;5.57;;;4.88;;
6376;SDS011;3221;48.858;10.128;2023-06-10T12:53:09;5.38;;;4.88;;
6376;SDS011;3221;48.858;10.128;2023-06-10T12:55:39;5.47;;;4.80;;
6376;SDS011;3221;48.858;10.128;2023-06-10T12:58:06;5.80;;;5.30;;
6376;SDS011;3221;48.858;10.128;2023-06-10T13:00:33;5.63;;;4.95;;
6376;SDS011;3221;48.858;10.128;2023-06-10T13:03:01;5.60;;;5.10;;
6376;SDS011;3221;48.858;10.128;2023-06-10T13:05:29;7.05;;;6.35;;
6376;SDS011;3221;48.858;10.128;2023-06-10T13:07:56;5.55;;;5.05;;
6376;SDS011;3221;48.858;10.128;2023-06-10T13:10:24;6.82;;;5.60;;
6376;SDS011;3221;48.858;10.128;2023-06-10T13:12:52;5.60;;;5.10;;
6376;SDS011;3221;48.858;10.128;2023-06-10T13:15:21;7.20;;;5.45;;
6376;SDS011;3221;48.858;10.128;2023-06-10T13:17:48;5.50;;;5.00;;
6376;SDS011;3221;48.858;10.128;2023-06-10T13:20:17;5.45;;;4.95;;
6376;SDS011;3221;48.858;10.128;2023-06-10T13:22:45;5.68;;;5.10;;
6376;SDS011;3221;48.858;10.128;2023-06-10T13:25:12;6.10;;;5.50;;
6376;SDS011;3221;48.858;10.128;2023-06-10T13:27:39;5.97;;;5.18;;
6376;SDS011;3221;48.858;10.128;2023-06-10T13:30:09;5.50;;;5.05;;
6376;SDS011;3221;48.858;10.128;2023-06-10T13:32:37;5.30;;;4.80;;
6376;SDS011;3221;48.858;10.128;2023-06-10T13:35:04;5.00;;;4.60;;
6376;SDS011;3221;48.858;10.128;2023-06-10T13:37:32;5.22;;;4.80;;
6376;SDS011;3221;48.858;10.128;2023-06-10T13:40:00;5.03;;;4.63;;
6376;SDS011;3221;48.858;10.128;2023-06-10T13:42:27;5.53;;;5.13;;
6376;SDS011;3221;48.858;10.128;2023-06-10T13:44:55;5.50;;;4.90;;
6376;SDS011;3221;48.858;10.128;2023-06-10T13:47:23;6.32;;;5.18;;
6376;SDS011;3221;48.858;10.128;2023-06-10T13:49:50;5.22;;;4.82;;
6376;SDS011;3221;48.858;10.128;2023-06-10T13:52:17;5.55;;;5.05;;
6376;SDS011;3221;48.858;10.128;2023-06-10T13:54:44;5.20;;;4.80;;
6376;SDS011;3221;48.858;10.128;2023-06-10T13:57:11;6.03;;;5.43;;
6376;SDS011;3221;48.858;10.128;2023-06-10T13:59:38;5.90;;;5.40;;
6376;SDS011;3221;48.858;10.128;2023-06-10T14:02:05;6.15;;;5.60;;
6376;SDS011;3221;48.858;10.128;2023-06-10T14:04:32;5.28;;;4.78;;
6376;SDS011;3221;48.858;10.128;2023-06-10T14:06:59;5.60;;;5.20;;
6376;SDS011;3221;48.858;10.128;2023-06-10T14:09:27;5.80;;;5.30;;
6376;SDS011;3221;48.858;10.128;2023-06-10T14:11:54;6.03;;;5.53;;
6376;SDS011;3221;48.858;10.128;2023-06-10T14:14:21;6.05;;;5.53;;
6376;SDS011;3221;48.858;10.128;2023-06-10T14:16:49;5.53;;;4.82;;
6376;SDS011;3221;48.858;10.128;2023-06-10T14:19:16;5.57;;;5.07;;
6376;SDS011;3221;48.858;10.128;2023-06-10T14:21:43;5.63;;;5.00;;
6376;SDS011;3221;48.858;10.128;2023-06-10T14:24:09;5.47;;;5.07;;
6376;SDS011;3221;48.858;10.128;2023-06-10T14:26:36;5.15;;;4.75;;
6376;SDS011;3221;48.858;10.128;2023-06-10T14:29:03;6.80;;;4.97;;
6376;SDS011;3221;48.858;10.128;2023-06-10T14:31:30;5.72;;;5.22;;
6376;SDS011;3221;48.858;10.128;2023-06-10T14:33:57;5.25;;;4.75;;
6376;SDS011;3221;48.858;10.128;2023-06-10T14:36:25;5.80;;;5.28;;
6376;SDS011;3221;48.858;10.128;2023-06-10T14:38:52;5.88;;;5.25;;
6376;SDS011;3221;48.858;10.128;2023-06-10T14:41:20;5.70;;;5.20;;
6376;SDS011;3221;48.858;10.128;2023-06-10T14:43:48;5.35;;;4.85;;
6376;SDS011;3221;48.858;10.128;2023-06-10T14:46:15;5.30;;;4.90;;
6376;SDS011;3221;48.858;10.128;2023-06-10T14:48:42;5.45;;;4.72;;
6376;SDS011;3221;48.858;10.128;2023-06-10T14:51:09;5.72;;;5.22;;
6376;SDS011;3221;48.858;10.128;2023-06-10T14:53:36;5.70;;;5.20;;
6376;SDS011;3221;48.858;10.128;2023-06-10T14:56:03;5.43;;;4.97;;
6376;SDS011;3221;48.858;10.128;2023-06-10T14:58:31;5.60;;;5.10;;
6376;SDS011;3221;48.858;10.128;2023-06-10T15:00:58;5.80;;;5.25;;
6376;SDS011;3221;48.858;10.128;2023-06-10T15:03:24;5.93;;;5.38;;
6376;SDS011;3221;48.858;10.128;2023-06-10T15:05:51;6.00;;;5.40;;
6376;SDS011;3221;48.858;10.128;2023-06-10T15:08:18;5.75;;;5.25;;
6376;SDS011;3221;48.858;10.128;2023-06-10T15:10:45;6.15;;;5.65;;
6376;SDS011;3221;48.858;10.128;2023-06-10T15:13:14;9.35;;;5.68;;
6376;SDS011;3221;48.858;10.128;2023-06-10T15:15:41;6.03;;;5.40;;
6376;SDS011;3221;48.858;10.128;2023-06-10T15:18:08;6.57;;;5.97;;
6376;SDS011;3221;48.858;10.128;2023-06-10T15:20:34;6.03;;;5.43;;
6376;SDS011;3221;48.858;10.128;2023-06-10T15:23:01;6.07;;;5.45;;